createdAt,value
2017-01-02T00:00:28.209Z,0
2017-01-02T00:01:28.217Z,0
2017-01-02T00:02:28.275Z,0
2017-01-02T00:03:28.681Z,0
2017-01-02T00:04:28.536Z,0
2017-01-02T00:05:28.591Z,0
2017-01-02T00:06:28.201Z,0
2017-01-02T00:07:30.060Z,0
2017-01-02T00:08:28.619Z,0
2017-01-02T00:09:29.427Z,0
2017-01-02T00:10:29.372Z,0
2017-01-02T00:11:28.686Z,0
2017-01-02T00:12:28.296Z,0
2017-01-02T00:13:28.645Z,0
2017-01-02T00:14:28.342Z,0
2017-01-02T00:15:29.063Z,0
2017-01-02T00:16:28.274Z,0
2017-01-02T00:17:28.280Z,0
2017-01-02T00:18:30.017Z,0
2017-01-02T00:19:28.938Z,0
2017-01-02T00:20:29.754Z,0
2017-01-02T00:21:29.148Z,0
2017-01-02T00:22:29.163Z,0
2017-01-02T00:23:28.351Z,0
2017-01-02T00:24:28.675Z,0
2017-01-02T00:25:28.286Z,0
2017-01-02T00:26:28.738Z,0
2017-01-02T00:27:28.700Z,0
2017-01-02T00:28:29.151Z,0
2017-01-02T00:29:28.412Z,0
2017-01-02T00:30:28.374Z,0
2017-01-02T00:31:30.016Z,0
2017-01-02T00:32:28.783Z,0
2017-01-02T00:33:28.843Z,0
2017-01-02T00:34:29.203Z,0
2017-01-02T00:35:28.756Z,0
2017-01-02T00:36:28.438Z,0
2017-01-02T00:37:29.245Z,0
2017-01-02T00:38:28.826Z,0
2017-01-02T00:39:28.886Z,0
2017-01-02T00:40:28.895Z,0
2017-01-02T00:41:28.850Z,0
2017-01-02T00:42:30.206Z,0
2017-01-02T00:43:28.018Z,0
2017-01-02T00:44:29.177Z,0
2017-01-02T00:45:28.872Z,0
2017-01-02T00:46:28.441Z,0
2017-01-02T00:47:28.949Z,0
2017-01-02T00:48:28.901Z,0
2017-01-02T00:49:28.060Z,0
2017-01-02T00:50:28.866Z,0
2017-01-02T00:51:28.124Z,0
2017-01-02T00:52:28.874Z,0
2017-01-02T00:53:30.460Z,0
2017-01-02T00:54:28.640Z,0
2017-01-02T00:55:29.751Z,0
2017-01-02T00:56:29.351Z,0
2017-01-02T00:57:29.007Z,0
2017-01-02T00:58:28.628Z,0
2017-01-02T00:59:28.975Z,0
2017-01-02T01:00:29.440Z,0
2017-01-02T01:01:28.250Z,0
2017-01-02T01:02:29.148Z,0
2017-01-02T01:03:29.109Z,0
2017-01-02T01:04:28.168Z,0
2017-01-02T01:05:29.067Z,0
2017-01-02T01:06:29.734Z,0
2017-01-02T01:07:28.585Z,0
2017-01-02T01:08:28.701Z,0
2017-01-02T01:09:29.395Z,0
2017-01-02T01:10:29.104Z,0
2017-01-02T01:11:28.616Z,0
2017-01-02T01:12:28.677Z,0
2017-01-02T01:13:28.788Z,0
2017-01-02T01:14:29.042Z,0
2017-01-02T01:15:30.962Z,0
2017-01-02T01:16:29.049Z,0
2017-01-02T01:17:30.250Z,0
2017-01-02T01:18:29.112Z,0
2017-01-02T01:19:28.378Z,0
2017-01-02T01:20:28.336Z,0
2017-01-02T01:21:29.084Z,0
2017-01-02T01:22:29.142Z,0
2017-01-02T01:23:28.359Z,0
2017-01-02T01:24:29.156Z,0
2017-01-02T01:25:28.767Z,0
2017-01-02T01:26:29.171Z,0
2017-01-02T01:27:28.783Z,0
2017-01-02T01:28:30.243Z,0
2017-01-02T01:29:29.586Z,0
2017-01-02T01:30:29.641Z,0
2017-01-02T01:31:29.600Z,0
2017-01-02T01:32:28.765Z,0
2017-01-02T01:33:28.427Z,0
2017-01-02T01:34:28.784Z,0
2017-01-02T01:35:29.699Z,0
2017-01-02T01:36:29.587Z,0
2017-01-02T01:37:29.595Z,0
2017-01-02T01:38:29.748Z,0
2017-01-02T01:39:30.758Z,0
2017-01-02T01:40:29.372Z,0
2017-01-02T01:41:28.826Z,0
2017-01-02T01:42:28.839Z,0
2017-01-02T01:43:28.894Z,0
2017-01-02T01:44:29.294Z,0
2017-01-02T01:45:29.008Z,0
2017-01-02T01:46:29.515Z,0
2017-01-02T01:47:29.717Z,0
2017-01-02T01:48:28.928Z,0
2017-01-02T01:49:29.736Z,0
2017-01-02T01:50:30.847Z,0
2017-01-02T01:51:29.355Z,0
2017-01-02T01:52:29.457Z,0
2017-01-02T01:53:29.758Z,0
2017-01-02T01:54:29.379Z,0
2017-01-02T01:55:28.888Z,0
2017-01-02T01:56:29.832Z,0
2017-01-02T01:57:30.337Z,0
2017-01-02T01:58:29.400Z,0
2017-01-02T01:59:29.851Z,0
2017-01-02T02:00:29.072Z,0
2017-01-02T02:01:29.723Z,0
2017-01-02T02:02:28.984Z,0
2017-01-02T02:03:29.831Z,0
2017-01-02T02:04:29.743Z,0
2017-01-02T02:05:29.449Z,0
2017-01-02T02:06:29.803Z,0
2017-01-02T02:07:28.672Z,0
2017-01-02T02:08:30.124Z,0
2017-01-02T02:09:29.534Z,0
2017-01-02T02:10:29.892Z,0
2017-01-02T02:11:29.498Z,0
2017-01-02T02:12:29.507Z,0
2017-01-02T02:13:29.904Z,0
2017-01-02T02:14:29.465Z,0
2017-01-02T02:15:29.127Z,0
2017-01-02T02:16:28.838Z,0
2017-01-02T02:17:29.588Z,0
2017-01-02T02:18:29.092Z,0
2017-01-02T02:19:30.536Z,0
2017-01-02T02:20:29.558Z,0
2017-01-02T02:21:29.818Z,0
2017-01-02T02:22:30.069Z,0
2017-01-02T02:23:29.578Z,0
2017-01-02T02:24:29.932Z,0
2017-01-02T02:25:29.593Z,0
2017-01-02T02:26:29.550Z,0
2017-01-02T02:27:28.765Z,0
2017-01-02T02:28:29.614Z,0
2017-01-02T02:29:29.275Z,0
2017-01-02T02:30:29.242Z,0
2017-01-02T02:31:29.636Z,0
2017-01-02T02:32:30.346Z,0
2017-01-02T02:33:29.999Z,0
2017-01-02T02:34:29.957Z,0
2017-01-02T02:35:29.272Z,0
2017-01-02T02:36:29.670Z,0
2017-01-02T02:37:30.124Z,0
2017-01-02T02:38:29.734Z,0
2017-01-02T02:39:29.641Z,0
2017-01-02T02:40:29.752Z,0
2017-01-02T02:41:30.102Z,0
2017-01-02T02:42:30.122Z,0
2017-01-02T02:43:31.027Z,0
2017-01-02T02:44:29.729Z,0
2017-01-02T02:45:30.236Z,0
2017-01-02T02:46:29.296Z,0
2017-01-02T02:47:30.197Z,0
2017-01-02T02:48:29.708Z,0
2017-01-02T02:49:29.421Z,0
2017-01-02T02:50:29.772Z,0
2017-01-02T02:51:30.130Z,0
2017-01-02T02:52:29.369Z,0
2017-01-02T02:53:29.503Z,0
2017-01-02T02:54:31.306Z,0
2017-01-02T02:55:29.758Z,0
2017-01-02T02:56:30.461Z,0
2017-01-02T02:57:29.769Z,0
2017-01-02T02:58:29.882Z,0
2017-01-02T02:59:29.886Z,0
2017-01-02T03:00:29.993Z,0
2017-01-02T03:01:30.202Z,0
2017-01-02T03:02:29.508Z,0
2017-01-02T03:03:29.226Z,0
2017-01-02T03:04:29.474Z,0
2017-01-02T03:05:31.431Z,0
2017-01-02T03:06:29.147Z,0
2017-01-02T03:07:30.844Z,0
2017-01-02T03:08:30.299Z,0
2017-01-02T03:09:29.560Z,0
2017-01-02T03:10:29.520Z,0
2017-01-02T03:11:29.131Z,0
2017-01-02T03:12:29.928Z,0
2017-01-02T03:13:29.895Z,0
2017-01-02T03:14:29.549Z,0
2017-01-02T03:15:29.902Z,0
2017-01-02T03:16:29.612Z,0
2017-01-02T03:17:29.521Z,0
2017-01-02T03:18:29.531Z,0
2017-01-02T03:19:29.631Z,0
2017-01-02T03:20:29.688Z,0
2017-01-02T03:21:30.042Z,0
2017-01-02T03:22:29.954Z,0
2017-01-02T03:23:30.060Z,0
2017-01-02T03:24:29.616Z,0
2017-01-02T03:25:29.724Z,0
2017-01-02T03:26:29.987Z,0
2017-01-02T03:27:29.442Z,0
2017-01-02T03:29:13.836Z,0
2017-01-02T03:29:31.172Z,0
2017-01-02T03:30:30.008Z,0
2017-01-02T03:31:29.664Z,0
2017-01-02T03:32:30.320Z,0
2017-01-02T03:33:29.733Z,0
2017-01-02T03:34:29.735Z,0
2017-01-02T03:35:29.254Z,0
2017-01-02T03:36:30.407Z,0
2017-01-02T03:37:29.664Z,0
2017-01-02T03:38:30.172Z,0
2017-01-02T03:39:29.675Z,0
2017-01-02T03:40:29.981Z,0
2017-01-02T03:41:29.789Z,0
2017-01-02T03:42:30.590Z,0
2017-01-02T03:43:30.542Z,0
2017-01-02T03:44:29.763Z,0
2017-01-02T03:45:30.607Z,0
2017-01-02T03:46:30.276Z,0
2017-01-02T03:47:30.590Z,0
2017-01-02T03:48:29.838Z,0
2017-01-02T03:49:30.239Z,0
2017-01-02T03:50:30.225Z,0
2017-01-02T03:51:30.574Z,0
2017-01-02T03:52:30.706Z,0
2017-01-02T03:53:29.821Z,0
2017-01-02T03:54:30.231Z,0
2017-01-02T03:55:29.886Z,0
2017-01-02T03:56:30.591Z,0
2017-01-02T03:57:29.873Z,0
2017-01-02T03:58:31.158Z,0
2017-01-02T03:59:29.846Z,0
2017-01-02T04:00:30.469Z,0
2017-01-02T04:01:30.621Z,0
2017-01-02T04:02:30.282Z,0
2017-01-02T04:03:29.896Z,0
2017-01-02T04:04:30.351Z,0
2017-01-02T04:05:30.750Z,0
2017-01-02T04:06:29.914Z,0
2017-01-02T04:07:30.714Z,0
2017-01-02T04:08:30.325Z,0
2017-01-02T04:09:31.537Z,0
2017-01-02T04:10:29.959Z,0
2017-01-02T04:11:30.850Z,0
2017-01-02T04:12:29.916Z,0
2017-01-02T04:13:30.067Z,0
2017-01-02T04:14:30.374Z,0
2017-01-02T04:15:30.426Z,0
2017-01-02T04:16:30.385Z,0
2017-01-02T04:17:29.949Z,0
2017-01-02T04:18:29.963Z,0
2017-01-02T04:19:30.406Z,0
2017-01-02T04:20:31.514Z,0
2017-01-02T04:21:30.815Z,0
2017-01-02T04:22:31.079Z,0
2017-01-02T04:23:30.018Z,0
2017-01-02T04:24:30.003Z,0
2017-01-02T04:25:30.057Z,0
2017-01-02T04:26:30.456Z,0
2017-01-02T04:27:31.361Z,0
2017-01-02T04:28:30.519Z,0
2017-01-02T04:29:30.135Z,0
2017-01-02T04:30:29.688Z,0
2017-01-02T04:31:31.911Z,0
2017-01-02T04:32:29.652Z,0
2017-01-02T04:33:31.613Z,0
2017-01-02T04:34:30.115Z,0
2017-01-02T04:35:30.076Z,0
2017-01-02T04:36:31.073Z,0
2017-01-02T04:37:30.534Z,0
2017-01-02T04:38:30.198Z,0
2017-01-02T04:39:30.546Z,0
2017-01-02T04:40:31.047Z,0
2017-01-02T04:41:30.517Z,0
2017-01-02T04:42:30.551Z,0
2017-01-02T04:43:30.575Z,0
2017-01-02T04:44:31.876Z,0
2017-01-02T04:45:30.194Z,0
2017-01-02T04:46:30.988Z,0
2017-01-02T04:47:31.048Z,0
2017-01-02T04:48:30.210Z,0
2017-01-02T04:49:29.780Z,0
2017-01-02T04:50:31.025Z,0
2017-01-02T04:51:30.685Z,0
2017-01-02T04:52:30.691Z,0
2017-01-02T04:53:30.996Z,0
2017-01-02T04:54:30.258Z,0
2017-01-02T04:55:32.125Z,0
2017-01-02T04:56:30.667Z,0
2017-01-02T04:57:31.071Z,0
2017-01-02T04:58:59.647Z,0
2017-01-02T04:59:30.344Z,0
2017-01-02T05:00:30.644Z,0
2017-01-02T05:01:29.909Z,0
2017-01-02T05:02:30.654Z,0
2017-01-02T05:03:30.715Z,0
2017-01-02T05:04:30.684Z,0
2017-01-02T05:05:30.726Z,0
2017-01-02T05:06:30.357Z,0
2017-01-02T05:07:31.088Z,0
2017-01-02T05:08:30.699Z,0
2017-01-02T05:09:31.158Z,0
2017-01-02T05:10:31.161Z,0
2017-01-02T05:11:30.774Z,0
2017-01-02T05:12:30.728Z,0
2017-01-02T05:13:30.390Z,0
2017-01-02T05:14:30.395Z,0
2017-01-02T05:15:31.103Z,0
2017-01-02T05:16:30.392Z,0
2017-01-02T05:17:30.866Z,0
2017-01-02T05:18:30.771Z,0
2017-01-02T05:19:30.932Z,0
2017-01-02T05:20:29.997Z,0
2017-01-02T05:21:30.399Z,0
2017-01-02T05:22:30.915Z,0
2017-01-02T05:23:31.220Z,0
2017-01-02T05:24:31.359Z,0
2017-01-02T05:25:31.269Z,0
2017-01-02T05:26:31.725Z,0
2017-01-02T05:27:30.791Z,0
2017-01-02T05:28:47.529Z,0
2017-01-02T05:29:30.921Z,0
2017-01-02T05:30:31.353Z,0
2017-01-02T05:31:30.869Z,0
2017-01-02T05:32:31.320Z,0
2017-01-02T05:33:30.183Z,0
2017-01-02T05:34:31.382Z,0
2017-01-02T05:35:30.995Z,0
2017-01-02T05:36:30.950Z,0
2017-01-02T05:37:32.200Z,0
2017-01-02T05:38:30.517Z,0
2017-01-02T05:39:31.716Z,0
2017-01-02T05:40:30.636Z,0
2017-01-02T05:41:30.639Z,0
2017-01-02T05:42:30.648Z,0
2017-01-02T05:43:30.259Z,0
2017-01-02T05:44:30.665Z,0
2017-01-02T05:45:31.063Z,0
2017-01-02T05:46:31.023Z,0
2017-01-02T05:47:31.424Z,0
2017-01-02T05:48:30.641Z,0
2017-01-02T05:49:30.300Z,0
2017-01-02T05:50:32.007Z,0
2017-01-02T05:51:31.059Z,0
2017-01-02T05:52:30.718Z,0
2017-01-02T05:53:31.024Z,0
2017-01-02T05:54:30.635Z,0
2017-01-02T05:55:30.738Z,0
2017-01-02T05:56:30.647Z,0
2017-01-02T05:57:31.149Z,0
2017-01-02T05:58:32.457Z,0
2017-01-02T05:59:30.669Z,0
2017-01-02T06:00:31.176Z,0
2017-01-02T06:01:32.580Z,0
2017-01-02T06:02:31.082Z,0
2017-01-02T06:03:31.093Z,0
2017-01-02T06:04:30.809Z,0
2017-01-02T06:05:31.160Z,0
2017-01-02T06:06:30.374Z,0
2017-01-02T06:07:31.621Z,0
2017-01-02T06:08:31.134Z,0
2017-01-02T06:09:31.577Z,0
2017-01-02T06:10:31.400Z,0
2017-01-02T06:11:31.256Z,0
2017-01-02T06:12:33.133Z,0
2017-01-02T06:13:31.165Z,0
2017-01-02T06:14:31.168Z,0
2017-01-02T06:15:31.226Z,0
2017-01-02T06:16:31.312Z,0
2017-01-02T06:17:30.897Z,0
2017-01-02T06:18:31.598Z,0
2017-01-02T06:19:30.910Z,0
2017-01-02T06:20:30.869Z,0
2017-01-02T06:21:31.421Z,0
2017-01-02T06:22:31.281Z,0
2017-01-02T06:23:32.858Z,0
2017-01-02T06:24:31.292Z,0
2017-01-02T06:25:30.908Z,0
2017-01-02T06:26:30.989Z,0
2017-01-02T06:27:30.916Z,0
2017-01-02T06:28:30.976Z,0
2017-01-02T06:29:30.980Z,0
2017-01-02T06:30:31.779Z,0
2017-01-02T06:31:31.395Z,0
2017-01-02T06:32:31.697Z,0
2017-01-02T06:33:31.807Z,0
2017-01-02T06:34:30.972Z,0
2017-01-02T06:35:30.944Z,0
2017-01-02T06:36:31.775Z,0
2017-01-02T06:37:30.943Z,0
2017-01-02T06:38:30.636Z,0
2017-01-02T06:39:31.398Z,0
2017-01-02T06:40:31.356Z,0
2017-01-02T06:41:31.411Z,0
2017-01-02T06:42:30.979Z,0
2017-01-02T06:43:32.026Z,0
2017-01-02T06:44:30.695Z,0
2017-01-02T06:45:31.484Z,0
2017-01-02T06:46:31.053Z,0
2017-01-02T06:47:31.472Z,0
2017-01-02T06:48:31.463Z,0
2017-01-02T06:49:31.127Z,0
2017-01-02T06:50:31.945Z,0
2017-01-02T06:51:31.485Z,0
2017-01-02T06:52:31.487Z,0
2017-01-02T06:53:31.153Z,0
2017-01-02T06:54:33.051Z,0
2017-01-02T06:55:31.121Z,0
2017-01-02T06:56:32.321Z,0
2017-01-02T06:57:31.133Z,0
2017-01-02T06:58:31.086Z,0
2017-01-02T06:59:32.034Z,0
2017-01-02T07:00:31.544Z,0
2017-01-02T07:01:31.555Z,0
2017-01-02T07:02:31.661Z,0
2017-01-02T07:03:31.867Z,0
2017-01-02T07:04:31.211Z,0
2017-01-02T07:05:33.059Z,0
2017-01-02T07:06:31.842Z,0
2017-01-02T07:07:32.692Z,0
2017-01-02T07:08:30.764Z,0
2017-01-02T07:09:31.266Z,0
2017-01-02T07:10:30.827Z,0
2017-01-02T07:11:31.630Z,0
2017-01-02T07:12:31.318Z,0
2017-01-02T07:13:32.016Z,0
2017-01-02T07:14:31.597Z,0
2017-01-02T07:15:31.654Z,0
2017-01-02T07:16:31.171Z,0
2017-01-02T07:17:31.623Z,0
2017-01-02T07:18:33.081Z,0
2017-01-02T07:19:31.297Z,0
2017-01-02T07:20:31.245Z,0
2017-01-02T07:21:31.653Z,4
2017-01-02T07:22:30.887Z,4
2017-01-02T07:23:31.714Z,4
2017-01-02T07:24:31.271Z,0
2017-01-02T07:25:31.628Z,4
2017-01-02T07:26:31.736Z,4
2017-01-02T07:27:31.695Z,8
2017-01-02T07:28:32.145Z,4
2017-01-02T07:29:31.908Z,4
2017-01-02T07:30:31.868Z,4
2017-01-02T07:31:31.627Z,4
2017-01-02T07:32:31.725Z,4
2017-01-02T07:33:31.784Z,8
2017-01-02T07:34:31.398Z,8
2017-01-02T07:35:31.770Z,8
2017-01-02T07:36:32.008Z,12
2017-01-02T07:37:31.865Z,12
2017-01-02T07:38:32.174Z,12
2017-01-02T07:39:31.483Z,12
2017-01-02T07:40:31.389Z,16
2017-01-02T07:41:31.397Z,12
2017-01-02T07:42:31.450Z,12
2017-01-02T07:43:32.248Z,12
2017-01-02T07:44:31.419Z,12
2017-01-02T07:45:31.128Z,16
2017-01-02T07:46:31.880Z,12
2017-01-02T07:47:33.038Z,16
2017-01-02T07:48:31.102Z,20
2017-01-02T07:49:32.654Z,20
2017-01-02T07:50:31.957Z,20
2017-01-02T07:51:31.918Z,24
2017-01-02T07:52:31.657Z,24
2017-01-02T07:53:31.586Z,20
2017-01-02T07:54:31.934Z,24
2017-01-02T07:55:31.548Z,24
2017-01-02T07:56:31.904Z,24
2017-01-02T07:57:31.614Z,24
2017-01-02T07:58:33.226Z,28
2017-01-02T07:59:31.133Z,32
2017-01-02T08:00:33.043Z,36
2017-01-02T08:01:32.014Z,40
2017-01-02T08:02:32.342Z,44
2017-01-02T08:03:32.005Z,44
2017-01-02T08:04:32.015Z,40
2017-01-02T08:05:32.468Z,32
2017-01-02T08:06:31.635Z,32
2017-01-02T08:07:31.986Z,36
2017-01-02T08:08:31.257Z,36
2017-01-02T08:09:31.609Z,40
2017-01-02T08:10:32.060Z,44
2017-01-02T08:11:33.729Z,44
2017-01-02T08:12:31.679Z,56
2017-01-02T08:13:33.033Z,72
2017-01-02T08:14:31.699Z,100
2017-01-02T08:15:31.704Z,112
2017-01-02T08:16:32.061Z,100
2017-01-02T08:17:32.065Z,72
2017-01-02T08:18:32.125Z,60
2017-01-02T08:19:32.182Z,72
2017-01-02T08:20:32.093Z,84
2017-01-02T08:21:32.495Z,132
2017-01-02T08:22:33.865Z,140
2017-01-02T08:23:32.162Z,128
2017-01-02T08:24:32.849Z,132
2017-01-02T08:25:31.735Z,120
2017-01-02T08:26:31.498Z,104
2017-01-02T08:27:31.407Z,96
2017-01-02T08:28:32.304Z,92
2017-01-02T08:29:32.257Z,88
2017-01-02T08:30:32.267Z,112
2017-01-02T08:31:32.082Z,152
2017-01-02T08:32:32.210Z,140
2017-01-02T08:33:31.406Z,148
2017-01-02T08:34:32.249Z,140
2017-01-02T08:35:31.891Z,116
2017-01-02T08:36:31.820Z,104
2017-01-02T08:37:32.230Z,140
2017-01-02T08:38:32.679Z,160
2017-01-02T08:39:32.241Z,104
2017-01-02T08:40:31.953Z,100
2017-01-02T08:41:31.910Z,140
2017-01-02T08:42:32.184Z,192
2017-01-02T08:43:32.372Z,200
2017-01-02T08:44:32.434Z,156
2017-01-02T08:45:32.690Z,168
2017-01-02T08:46:31.952Z,200
2017-01-02T08:47:32.008Z,196
2017-01-02T08:48:32.739Z,180
2017-01-02T08:49:32.375Z,176
2017-01-02T08:50:32.926Z,204
2017-01-02T08:51:32.783Z,188
2017-01-02T08:52:32.399Z,228
2017-01-02T08:53:33.253Z,236
2017-01-02T08:54:32.758Z,228
2017-01-02T08:55:32.528Z,248
2017-01-02T08:56:31.588Z,260
2017-01-02T08:57:33.789Z,384
2017-01-02T08:58:32.071Z,452
2017-01-02T08:59:32.408Z,496
2017-01-02T09:00:32.016Z,460
2017-01-02T09:01:32.526Z,380
2017-01-02T09:02:31.688Z,252
2017-01-02T09:03:32.599Z,280
2017-01-02T09:04:32.754Z,388
2017-01-02T09:05:31.711Z,412
2017-01-02T09:06:32.957Z,528
2017-01-02T09:07:31.678Z,652
2017-01-02T09:08:32.580Z,556
2017-01-02T09:09:32.887Z,588
2017-01-02T09:10:32.934Z,580
2017-01-02T09:11:32.602Z,600
2017-01-02T09:12:32.614Z,724
2017-01-02T09:13:32.122Z,764
2017-01-02T09:14:32.228Z,544
2017-01-02T09:15:33.544Z,556
2017-01-02T09:16:32.938Z,568
2017-01-02T09:17:33.003Z,660
2017-01-02T09:18:32.174Z,564
2017-01-02T09:19:32.916Z,644
2017-01-02T09:20:32.285Z,716
2017-01-02T09:21:32.288Z,600
2017-01-02T09:22:32.640Z,556
2017-01-02T09:23:33.046Z,640
2017-01-02T09:24:32.918Z,700
2017-01-02T09:25:32.320Z,764
2017-01-02T09:26:32.282Z,592
2017-01-02T09:27:32.634Z,608
2017-01-02T09:28:33.740Z,668
2017-01-02T09:29:33.048Z,616
2017-01-02T09:30:33.104Z,648
2017-01-02T09:31:32.868Z,576
2017-01-02T09:32:32.724Z,508
2017-01-02T09:33:33.177Z,664
2017-01-02T09:34:32.346Z,660
2017-01-02T09:35:33.549Z,768
2017-01-02T09:36:32.856Z,1060
2017-01-02T09:37:32.765Z,1120
2017-01-02T09:38:33.169Z,1004
2017-01-02T09:39:34.309Z,1084
2017-01-02T09:40:32.787Z,1240
2017-01-02T09:41:33.454Z,960
2017-01-02T09:42:32.018Z,752
2017-01-02T09:43:32.814Z,760
2017-01-02T09:44:32.869Z,904
2017-01-02T09:45:32.139Z,852
2017-01-02T09:46:33.239Z,800
2017-01-02T09:47:33.201Z,944
2017-01-02T09:48:32.416Z,860
2017-01-02T09:49:33.217Z,712
2017-01-02T09:50:32.823Z,684
2017-01-02T09:51:33.329Z,636
2017-01-02T09:52:32.592Z,656
2017-01-02T09:53:32.853Z,656
2017-01-02T09:54:32.951Z,644
2017-01-02T09:55:32.965Z,624
2017-01-02T09:56:33.268Z,652
2017-01-02T09:57:33.279Z,708
2017-01-02T09:58:33.042Z,696
2017-01-02T09:59:32.856Z,664
2017-01-02T10:00:32.612Z,652
2017-01-02T10:01:32.966Z,644
2017-01-02T10:02:32.561Z,660
2017-01-02T10:03:32.587Z,656
2017-01-02T10:04:33.443Z,664
2017-01-02T10:05:32.209Z,664
2017-01-02T10:06:32.665Z,652
2017-01-02T10:07:32.226Z,652
2017-01-02T10:08:32.974Z,644
2017-01-02T10:09:33.483Z,652
2017-01-02T10:10:33.585Z,640
2017-01-02T10:11:33.004Z,628
2017-01-02T10:12:33.162Z,608
2017-01-02T10:13:32.619Z,600
2017-01-02T10:14:32.284Z,616
2017-01-02T10:15:33.034Z,636
2017-01-02T10:16:33.045Z,652
2017-01-02T10:17:32.359Z,660
2017-01-02T10:18:32.321Z,668
2017-01-02T10:19:33.066Z,660
2017-01-02T10:20:33.475Z,660
2017-01-02T10:21:33.959Z,636
2017-01-02T10:22:32.699Z,616
2017-01-02T10:23:33.254Z,636
2017-01-02T10:24:33.117Z,648
2017-01-02T10:25:32.324Z,624
2017-01-02T10:26:32.834Z,604
2017-01-02T10:27:33.636Z,592
2017-01-02T10:28:33.192Z,580
2017-01-02T10:29:32.806Z,572
2017-01-02T10:30:32.821Z,552
2017-01-02T10:31:33.220Z,540
2017-01-02T10:32:34.532Z,536
2017-01-02T10:33:33.237Z,532
2017-01-02T10:34:33.945Z,540
2017-01-02T10:35:33.253Z,552
2017-01-02T10:36:33.259Z,544
2017-01-02T10:37:33.269Z,548
2017-01-02T10:38:32.835Z,556
2017-01-02T10:39:33.685Z,540
2017-01-02T10:40:33.292Z,524
2017-01-02T10:41:33.354Z,532
2017-01-02T10:42:33.263Z,520
2017-01-02T10:43:35.079Z,488
2017-01-02T10:44:33.279Z,468
2017-01-02T10:45:34.427Z,440
2017-01-02T10:46:33.696Z,420
2017-01-02T10:47:32.961Z,380
2017-01-02T10:48:33.410Z,356
2017-01-02T10:49:33.418Z,324
2017-01-02T10:50:33.033Z,296
2017-01-02T10:51:33.765Z,284
2017-01-02T10:52:33.399Z,292
2017-01-02T10:53:32.610Z,300
2017-01-02T10:54:33.460Z,300
2017-01-02T10:55:33.526Z,300
2017-01-02T10:56:34.738Z,304
2017-01-02T10:57:33.438Z,276
2017-01-02T10:58:33.449Z,268
2017-01-02T10:59:33.405Z,256
2017-01-02T11:00:33.465Z,240
2017-01-02T11:01:33.023Z,224
2017-01-02T11:02:32.687Z,216
2017-01-02T11:03:33.487Z,224
2017-01-02T11:04:33.447Z,232
2017-01-02T11:05:33.763Z,252
2017-01-02T11:06:33.813Z,260
2017-01-02T11:07:32.780Z,264
2017-01-02T11:08:33.578Z,276
2017-01-02T11:09:33.486Z,284
2017-01-02T11:10:33.496Z,296
2017-01-02T11:11:33.103Z,320
2017-01-02T11:12:33.118Z,364
2017-01-02T11:13:33.571Z,428
2017-01-02T11:14:33.579Z,484
2017-01-02T11:15:33.187Z,676
2017-01-02T11:16:34.146Z,668
2017-01-02T11:17:33.617Z,748
2017-01-02T11:18:33.557Z,748
2017-01-02T11:19:33.179Z,744
2017-01-02T11:20:33.623Z,732
2017-01-02T11:21:33.253Z,724
2017-01-02T11:22:33.247Z,800
2017-01-02T11:23:33.702Z,768
2017-01-02T11:24:34.054Z,772
2017-01-02T11:25:34.165Z,872
2017-01-02T11:26:33.680Z,908
2017-01-02T11:27:34.542Z,716
2017-01-02T11:28:34.092Z,732
2017-01-02T11:29:33.806Z,612
2017-01-02T11:30:33.813Z,600
2017-01-02T11:31:33.325Z,700
2017-01-02T11:32:33.282Z,688
2017-01-02T11:33:33.339Z,712
2017-01-02T11:34:33.297Z,744
2017-01-02T11:35:33.805Z,764
2017-01-02T11:36:34.160Z,780
2017-01-02T11:37:33.771Z,804
2017-01-02T11:38:34.956Z,864
2017-01-02T11:39:33.788Z,956
2017-01-02T11:40:34.247Z,1012
2017-01-02T11:41:33.808Z,1012
2017-01-02T11:42:33.811Z,988
2017-01-02T11:43:33.029Z,844
2017-01-02T11:44:34.274Z,744
2017-01-02T11:45:34.231Z,664
2017-01-02T11:46:33.898Z,672
2017-01-02T11:47:33.803Z,724
2017-01-02T11:48:33.811Z,748
2017-01-02T11:49:35.432Z,724
2017-01-02T11:50:33.840Z,668
2017-01-02T11:51:34.447Z,632
2017-01-02T11:52:33.454Z,620
2017-01-02T11:53:34.355Z,616
2017-01-02T11:54:33.862Z,604
2017-01-02T11:55:34.267Z,596
2017-01-02T11:56:34.274Z,604
2017-01-02T11:57:34.041Z,624
2017-01-02T11:58:33.553Z,620
2017-01-02T11:59:34.403Z,616
2017-01-02T12:00:33.910Z,628
2017-01-02T12:01:34.974Z,644
2017-01-02T12:02:35.377Z,752
2017-01-02T12:03:34.020Z,872
2017-01-02T12:04:33.604Z,868
2017-01-02T12:05:34.007Z,888
2017-01-02T12:06:34.066Z,892
2017-01-02T12:07:33.972Z,864
2017-01-02T12:08:34.082Z,880
2017-01-02T12:09:34.039Z,920
2017-01-02T12:10:34.484Z,916
2017-01-02T12:11:34.055Z,904
2017-01-02T12:12:33.276Z,892
2017-01-02T12:13:34.035Z,888
2017-01-02T12:14:34.430Z,892
2017-01-02T12:15:35.190Z,892
2017-01-02T12:16:33.657Z,880
2017-01-02T12:17:34.160Z,880
2017-01-02T12:18:34.065Z,852
2017-01-02T12:19:34.101Z,840
2017-01-02T12:20:33.741Z,832
2017-01-02T12:21:34.587Z,832
2017-01-02T12:22:34.700Z,856
2017-01-02T12:23:34.656Z,880
2017-01-02T12:24:33.975Z,884
2017-01-02T12:25:33.330Z,872
2017-01-02T12:26:34.283Z,888
2017-01-02T12:27:34.140Z,888
2017-01-02T12:29:17.994Z,880
2017-01-02T12:29:33.762Z,872
2017-01-02T12:30:34.264Z,860
2017-01-02T12:31:34.671Z,836
2017-01-02T12:32:33.785Z,832
2017-01-02T12:33:34.687Z,828
2017-01-02T12:34:33.858Z,824
2017-01-02T12:35:34.650Z,800
2017-01-02T12:36:34.267Z,768
2017-01-02T12:37:33.509Z,760
2017-01-02T12:38:34.678Z,740
2017-01-02T12:39:34.632Z,688
2017-01-02T12:40:33.899Z,680
2017-01-02T12:41:34.367Z,640
2017-01-02T12:42:34.259Z,600
2017-01-02T12:43:33.871Z,580
2017-01-02T12:44:35.909Z,608
2017-01-02T12:45:34.539Z,652
2017-01-02T12:46:35.247Z,696
2017-01-02T12:47:34.477Z,744
2017-01-02T12:48:34.071Z,768
2017-01-02T12:49:34.720Z,772
2017-01-02T12:50:34.028Z,744
2017-01-02T12:51:33.987Z,736
2017-01-02T12:52:34.444Z,736
2017-01-02T12:53:34.400Z,740
2017-01-02T12:54:34.460Z,744
2017-01-02T12:55:34.424Z,744
2017-01-02T12:56:34.531Z,692
2017-01-02T12:57:35.738Z,688
2017-01-02T12:58:33.995Z,672
2017-01-02T12:59:34.121Z,668
2017-01-02T13:00:34.902Z,668
2017-01-02T13:01:34.121Z,656
2017-01-02T13:02:34.122Z,652
2017-01-02T13:03:34.084Z,616
2017-01-02T13:04:34.552Z,608
2017-01-02T13:05:34.101Z,616
2017-01-02T13:06:34.281Z,628
2017-01-02T13:07:34.574Z,624
2017-01-02T13:08:38.056Z,620
2017-01-02T13:09:33.789Z,604
2017-01-02T13:10:34.508Z,592
2017-01-02T13:11:35.043Z,580
2017-01-02T13:12:34.951Z,572
2017-01-02T13:13:34.916Z,568
2017-01-02T13:14:34.967Z,580
2017-01-02T13:15:35.434Z,576
2017-01-02T13:16:34.194Z,592
2017-01-02T13:17:35.164Z,588
2017-01-02T13:18:34.950Z,592
2017-01-02T13:19:34.419Z,584
2017-01-02T13:20:34.779Z,560
2017-01-02T13:21:34.184Z,536
2017-01-02T13:22:35.059Z,516
2017-01-02T13:23:34.643Z,500
2017-01-02T13:24:34.305Z,492
2017-01-02T13:25:34.265Z,488
2017-01-02T13:26:33.876Z,480
2017-01-02T13:27:35.125Z,460
2017-01-02T13:28:36.285Z,440
2017-01-02T13:29:34.349Z,428
2017-01-02T13:30:35.202Z,424
2017-01-02T13:31:34.314Z,412
2017-01-02T13:32:34.667Z,404
2017-01-02T13:33:34.332Z,408
2017-01-02T13:34:34.906Z,408
2017-01-02T13:35:34.695Z,404
2017-01-02T13:36:34.700Z,400
2017-01-02T13:37:34.365Z,400
2017-01-02T13:38:33.920Z,408
2017-01-02T13:39:34.390Z,400
2017-01-02T13:40:34.782Z,396
2017-01-02T13:41:35.547Z,392
2017-01-02T13:42:34.751Z,388
2017-01-02T13:43:34.859Z,388
2017-01-02T13:44:34.372Z,388
2017-01-02T13:45:34.776Z,388
2017-01-02T13:46:34.834Z,404
2017-01-02T13:47:35.095Z,416
2017-01-02T13:48:34.900Z,416
2017-01-02T13:49:34.815Z,412
2017-01-02T13:50:34.865Z,432
2017-01-02T13:51:35.025Z,444
2017-01-02T13:52:36.377Z,440
2017-01-02T13:53:34.591Z,436
2017-01-02T13:54:34.155Z,408
2017-01-02T13:55:34.913Z,412
2017-01-02T13:56:34.768Z,412
2017-01-02T13:57:34.873Z,408
2017-01-02T13:58:34.577Z,408
2017-01-02T13:59:35.290Z,400
2017-01-02T14:00:34.943Z,404
2017-01-02T14:01:34.999Z,412
2017-01-02T14:02:34.114Z,404
2017-01-02T14:03:34.965Z,400
2017-01-02T14:04:34.587Z,388
2017-01-02T14:05:34.985Z,384
2017-01-02T14:06:34.993Z,380
2017-01-02T14:07:35.348Z,376
2017-01-02T14:08:34.165Z,368
2017-01-02T14:09:35.411Z,360
2017-01-02T14:10:35.353Z,356
2017-01-02T14:11:35.029Z,360
2017-01-02T14:12:35.352Z,364
2017-01-02T14:13:35.209Z,372
2017-01-02T14:14:35.057Z,380
2017-01-02T14:15:35.412Z,388
2017-01-02T14:16:35.418Z,392
2017-01-02T14:17:34.241Z,384
2017-01-02T14:18:35.533Z,368